createdAt,value
2023-05-21T00:01:30.444Z,20.35
2023-05-21T00:03:59.922Z,20.28
2023-05-21T00:06:28.662Z,20.18
2023-05-21T00:08:57.082Z,20.11
2023-05-21T00:11:25.435Z,20.07
2023-05-21T00:13:53.738Z,20.05
2023-05-21T00:16:23.711Z,19.99
2023-05-21T00:18:54.459Z,19.88
2023-05-21T00:21:26.290Z,19.80
2023-05-21T00:23:56.510Z,19.76
2023-05-21T00:26:25.278Z,19.77
2023-05-21T00:28:57.993Z,19.72
2023-05-21T00:31:27.775Z,19.70
2023-05-21T00:33:56.130Z,19.66
2023-05-21T00:36:25.347Z,19.61
2023-05-21T00:38:53.933Z,19.61
2023-05-21T00:41:23.097Z,19.65
2023-05-21T00:43:52.958Z,19.63
2023-05-21T00:46:22.804Z,19.60
2023-05-21T00:48:53.437Z,19.60
2023-05-21T00:51:22.249Z,19.56
2023-05-21T00:53:52.654Z,19.57
2023-05-21T00:56:22.797Z,19.59
2023-05-21T00:58:52.230Z,19.57
2023-05-21T01:01:20.655Z,19.56
2023-05-21T01:03:49.331Z,19.51
2023-05-21T01:06:20.797Z,19.47
2023-05-21T01:08:50.939Z,19.42
2023-05-21T01:11:21.715Z,19.41
2023-05-21T01:13:51.290Z,19.42
2023-05-21T01:16:19.853Z,19.40
2023-05-21T01:18:48.434Z,19.36
2023-05-21T01:21:19.691Z,19.33
2023-05-21T01:23:52.254Z,19.33
2023-05-21T01:26:20.604Z,19.35
2023-05-21T01:28:49.199Z,19.35
2023-05-21T01:31:26.570Z,19.32
2023-05-21T01:33:58.200Z,19.32
2023-05-21T01:36:31.225Z,19.35
2023-05-21T01:39:07.778Z,19.37
2023-05-21T01:41:40.948Z,19.36
2023-05-21T01:44:11.146Z,19.33
2023-05-21T01:46:40.988Z,19.31
2023-05-21T01:49:09.961Z,19.27
2023-05-21T01:51:38.532Z,19.27
2023-05-21T01:54:08.219Z,19.28
2023-05-21T01:56:37.218Z,19.30
2023-05-21T01:59:05.678Z,19.31
2023-05-21T02:01:34.388Z,19.36
2023-05-21T02:04:02.903Z,19.37
2023-05-21T02:06:32.769Z,19.39
2023-05-21T02:09:01.112Z,19.42
2023-05-21T02:11:30.992Z,19.47
2023-05-21T02:13:59.418Z,19.48
2023-05-21T02:16:27.864Z,19.53
2023-05-21T02:18:57.562Z,19.51
2023-05-21T02:21:26.354Z,19.50
2023-05-21T02:23:54.672Z,19.44
2023-05-21T02:26:23.199Z,19.39
2023-05-21T02:28:53.009Z,19.39
2023-05-21T02:31:21.325Z,19.38
2023-05-21T02:33:49.666Z,19.32
2023-05-21T02:36:19.267Z,19.35
2023-05-21T02:38:47.881Z,19.38
2023-05-21T02:41:16.397Z,19.40
2023-05-21T02:43:44.710Z,19.42
2023-05-21T02:46:14.645Z,19.42
2023-05-21T02:48:43.068Z,19.46
2023-05-21T02:51:11.618Z,19.46
2023-05-21T02:53:40.636Z,19.41
2023-05-21T02:56:09.241Z,19.44
2023-05-21T02:58:37.569Z,19.47
2023-05-21T03:01:06.137Z,19.43
2023-05-21T03:03:36.047Z,19.44
2023-05-21T03:06:05.037Z,19.38
2023-05-21T03:08:33.432Z,19.39
2023-05-21T03:11:01.845Z,19.41
2023-05-21T03:13:30.332Z,19.43
2023-05-21T03:15:58.649Z,19.44
2023-05-21T03:18:26.988Z,19.42
2023-05-21T03:20:59.105Z,19.36
2023-05-21T03:23:28.184Z,19.30
2023-05-21T03:25:56.822Z,19.24
2023-05-21T03:28:25.155Z,19.17
2023-05-21T03:30:53.792Z,19.12
2023-05-21T03:33:54.901Z,19.08
2023-05-21T03:36:27.733Z,19.07
2023-05-21T03:38:57.391Z,18.99
2023-05-21T03:41:26.428Z,18.93
2023-05-21T03:44:17.706Z,18.78
2023-05-21T03:46:57.161Z,18.78
2023-05-21T03:49:28.795Z,18.76
2023-05-21T03:51:59.902Z,18.67
2023-05-21T03:54:29.133Z,18.64
2023-05-21T03:57:02.617Z,18.57
2023-05-21T03:59:30.926Z,18.59
2023-05-21T04:01:59.652Z,18.59
2023-05-21T04:04:29.528Z,18.62
2023-05-21T04:06:59.713Z,18.68
2023-05-21T04:09:28.919Z,18.70
2023-05-21T04:11:57.279Z,18.70
2023-05-21T04:14:25.584Z,18.68
2023-05-21T04:16:54.286Z,18.66
2023-05-21T04:19:23.164Z,18.67
2023-05-21T04:21:51.956Z,18.71
2023-05-21T04:24:22.640Z,18.77
2023-05-21T04:27:10.141Z,18.74
2023-05-21T04:29:42.652Z,18.82
2023-05-21T04:32:11.685Z,18.82
2023-05-21T04:34:42.141Z,18.82
2023-05-21T04:37:10.677Z,18.87
2023-05-21T04:39:41.143Z,18.93
2023-05-21T04:42:10.933Z,18.92
2023-05-21T04:44:40.341Z,18.98
2023-05-21T04:47:08.965Z,19.05
2023-05-21T04:49:37.692Z,19.09
2023-05-21T04:52:06.754Z,19.14
2023-05-21T04:54:36.522Z,19.13
2023-05-21T04:57:06.413Z,19.13
2023-05-21T04:59:35.392Z,19.03
2023-05-21T05:02:03.558Z,19.00
2023-05-21T05:04:32.436Z,18.95
2023-05-21T05:07:00.577Z,18.91
2023-05-21T05:09:30.371Z,18.89
2023-05-21T05:11:58.528Z,18.88
2023-05-21T05:14:27.948Z,18.92
2023-05-21T05:17:00.859Z,18.91
2023-05-21T05:19:30.055Z,18.95
2023-05-21T05:21:58.339Z,18.94
2023-05-21T05:24:26.431Z,18.96
2023-05-21T05:26:56.295Z,19.01
2023-05-21T05:29:24.573Z,19.10
2023-05-21T05:31:56.998Z,19.16
2023-05-21T05:34:25.094Z,19.26
2023-05-21T05:36:53.296Z,19.36
2023-05-21T05:39:21.561Z,19.48
2023-05-21T05:41:49.931Z,19.52
2023-05-21T05:44:18.169Z,19.63
2023-05-21T05:46:46.407Z,19.76
2023-05-21T05:49:15.966Z,19.82
2023-05-21T05:51:44.869Z,19.90
2023-05-21T05:54:12.963Z,20.02
2023-05-21T05:56:41.971Z,20.13
2023-05-21T05:59:10.069Z,20.27
2023-05-21T06:01:40.054Z,20.35
2023-05-21T06:04:08.223Z,20.40
2023-05-21T06:06:38.790Z,20.46
2023-05-21T06:09:06.849Z,20.58
2023-05-21T06:11:34.916Z,20.68
2023-05-21T06:14:03.030Z,20.73
2023-05-21T06:16:39.249Z,20.78
2023-05-21T06:19:07.656Z,20.86
2023-05-21T06:21:35.841Z,20.91
2023-05-21T06:24:08.128Z,20.92
2023-05-21T06:26:36.412Z,20.92
2023-05-21T06:29:04.902Z,21.01
2023-05-21T06:31:34.040Z,21.06
2023-05-21T06:34:02.522Z,21.09
2023-05-21T06:36:32.388Z,21.04
2023-05-21T06:39:01.146Z,21.07
2023-05-21T06:41:30.804Z,21.16
2023-05-21T06:44:03.249Z,21.23
2023-05-21T06:46:50.128Z,21.35
2023-05-21T06:49:20.085Z,21.51
2023-05-21T06:51:48.223Z,21.45
2023-05-21T06:54:16.388Z,21.44
2023-05-21T06:56:46.017Z,21.51
2023-05-21T06:59:16.350Z,21.58
2023-05-21T07:01:44.911Z,21.64
2023-05-21T07:04:13.160Z,21.76
2023-05-21T07:06:43.168Z,21.92
2023-05-21T07:09:11.294Z,21.92
2023-05-21T07:11:39.888Z,21.95
2023-05-21T07:14:11.335Z,22.05
2023-05-21T07:16:40.296Z,22.20
2023-05-21T07:19:09.298Z,22.29
2023-05-21T07:21:37.538Z,22.35
2023-05-21T07:24:07.780Z,22.40
2023-05-21T07:26:39.184Z,22.44
2023-05-21T07:29:07.334Z,22.55
2023-05-21T07:31:36.939Z,22.72
2023-05-21T07:34:05.116Z,22.77
2023-05-21T07:36:34.618Z,22.80
2023-05-21T07:39:03.938Z,22.80
2023-05-21T07:41:32.761Z,22.93
2023-05-21T07:44:03.264Z,23.02
2023-05-21T07:46:33.370Z,23.09
2023-05-21T07:49:02.890Z,23.14
2023-05-21T07:51:31.398Z,23.18
2023-05-21T07:53:59.506Z,23.29
2023-05-21T07:56:34.740Z,23.32
2023-05-21T07:59:03.411Z,23.41
2023-05-21T08:01:31.585Z,23.47
2023-05-21T08:04:05.926Z,23.44
2023-05-21T08:06:38.580Z,23.43
2023-05-21T08:09:07.258Z,23.46
2023-05-21T08:11:36.076Z,23.51
2023-05-21T08:14:04.469Z,23.54
2023-05-21T08:16:32.889Z,23.66
2023-05-21T08:19:01.158Z,23.81
2023-05-21T08:21:29.295Z,23.97
2023-05-21T08:24:00.348Z,24.05
2023-05-21T08:26:28.684Z,24.10
2023-05-21T08:28:56.801Z,24.16
2023-05-21T08:31:24.884Z,24.26
2023-05-21T08:33:53.438Z,24.31
2023-05-21T08:36:29.308Z,24.45
2023-05-21T08:39:04.888Z,24.47
2023-05-21T08:41:37.084Z,24.55
2023-05-21T08:44:09.711Z,24.69
2023-05-21T08:46:40.872Z,24.79
2023-05-21T08:49:13.994Z,24.83
2023-05-21T08:51:43.021Z,24.87
2023-05-21T08:54:14.048Z,24.85
2023-05-21T08:56:47.005Z,24.82
2023-05-21T08:59:19.320Z,24.74
2023-05-21T09:01:50.095Z,24.77
2023-05-21T09:04:25.367Z,24.90
2023-05-21T09:06:58.090Z,25.03
2023-05-21T09:09:55.009Z,25.15
2023-05-21T09:12:23.418Z,25.32
2023-05-21T09:14:51.839Z,25.36
2023-05-21T09:17:22.499Z,25.50
2023-05-21T09:20:14.726Z,25.71
2023-05-21T09:22:49.021Z,25.72
2023-05-21T09:25:22.614Z,25.66
2023-05-21T09:27:51.383Z,25.65
2023-05-21T09:30:23.715Z,25.75
2023-05-21T09:32:55.813Z,25.81
2023-05-21T09:35:24.236Z,25.93
2023-05-21T09:37:54.853Z,26.11
2023-05-21T09:40:25.612Z,26.34
2023-05-21T09:42:54.987Z,26.32
2023-05-21T09:45:24.409Z,26.33
2023-05-21T09:47:56.088Z,26.33
2023-05-21T09:50:26.992Z,26.40
2023-05-21T09:52:55.796Z,26.52
2023-05-21T09:55:26.590Z,26.68
2023-05-21T09:57:54.946Z,26.76
2023-05-21T10:00:24.273Z,26.95
2023-05-21T10:02:55.913Z,26.78
2023-05-21T10:05:27.692Z,26.92
2023-05-21T10:08:03.246Z,27.12
2023-05-21T10:10:33.698Z,27.29
2023-05-21T10:13:07.833Z,27.47
2023-05-21T10:15:39.696Z,27.70
2023-05-21T10:18:09.607Z,27.87
2023-05-21T10:20:39.020Z,27.96
2023-05-21T10:23:07.914Z,27.96
2023-05-21T10:25:38.061Z,27.85
2023-05-21T10:28:07.993Z,28.00
2023-05-21T10:30:38.379Z,28.24
2023-05-21T10:33:07.158Z,28.41
2023-05-21T10:35:35.858Z,28.48
2023-05-21T10:38:05.764Z,28.39
2023-05-21T10:40:34.194Z,28.33
2023-05-21T10:43:47.365Z,28.30
2023-05-21T10:46:33.454Z,28.31
2023-05-21T10:49:17.345Z,28.11
2023-05-21T10:51:54.955Z,28.02
2023-05-21T10:55:03.563Z,27.88
2023-05-21T10:57:59.353Z,27.80
2023-05-21T11:00:31.529Z,28.04
2023-05-21T11:03:00.454Z,28.10
2023-05-21T11:05:40.935Z,28.12
2023-05-21T11:08:22.500Z,28.35
2023-05-21T11:10:54.827Z,28.61
2023-05-21T11:13:23.642Z,28.61
2023-05-21T11:16:15.999Z,28.59
2023-05-21T11:19:03.720Z,28.70
2023-05-21T11:21:34.858Z,28.74
2023-05-21T11:24:10.983Z,28.86
2023-05-21T11:27:04.419Z,28.98
2023-05-21T11:29:47.212Z,29.20
2023-05-21T11:32:20.687Z,29.49
2023-05-21T11:34:49.841Z,29.81
2023-05-21T11:37:27.630Z,29.81
2023-05-21T11:39:57.061Z,29.70
2023-05-21T11:42:33.003Z,29.54
2023-05-21T11:45:02.207Z,29.85
2023-05-21T11:47:33.261Z,30.12
2023-05-21T11:50:02.871Z,30.18
2023-05-21T11:52:31.752Z,30.22
2023-05-21T11:55:00.326Z,30.35
2023-05-21T11:57:31.283Z,30.70
2023-05-21T12:00:00.328Z,30.91
2023-05-21T12:02:29.532Z,31.08
2023-05-21T12:05:03.937Z,31.15
2023-05-21T12:07:32.065Z,31.04
2023-05-21T12:10:01.827Z,31.18
2023-05-21T12:12:38.842Z,31.39
2023-05-21T12:15:15.013Z,31.70
2023-05-21T12:17:43.154Z,32.13
2023-05-21T12:20:16.680Z,32.34
2023-05-21T12:22:45.874Z,32.59
2023-05-21T12:25:13.926Z,32.88
2023-05-21T12:27:45.134Z,33.08
2023-05-21T12:30:13.628Z,33.21
2023-05-21T12:32:44.140Z,33.44
2023-05-21T12:35:24.046Z,33.72
2023-05-21T12:37:55.362Z,33.92
2023-05-21T12:40:23.578Z,33.79
2023-05-21T12:42:52.700Z,33.68
2023-05-21T12:45:22.782Z,33.71
2023-05-21T12:47:56.037Z,33.64
2023-05-21T12:50:26.236Z,33.40
2023-05-21T12:52:58.990Z,33.42
2023-05-21T12:55:27.180Z,33.19
2023-05-21T12:58:05.519Z,33.30
2023-05-21T13:00:34.399Z,33.17
2023-05-21T13:03:04.436Z,32.83
2023-05-21T13:05:34.593Z,32.77
2023-05-21T13:08:02.787Z,32.75
2023-05-21T13:10:30.905Z,32.81
2023-05-21T13:12:58.983Z,32.86
2023-05-21T13:15:27.052Z,32.90
2023-05-21T13:17:56.736Z,33.05
2023-05-21T13:20:27.363Z,33.14
2023-05-21T13:22:57.087Z,33.04
2023-05-21T13:25:28.790Z,33.12
2023-05-21T13:27:58.228Z,33.16
2023-05-21T13:30:26.587Z,33.15
2023-05-21T13:32:55.028Z,33.02
2023-05-21T13:35:23.368Z,32.83
2023-05-21T13:37:51.507Z,32.93
2023-05-21T13:40:20.949Z,32.86
2023-05-21T13:42:50.585Z,32.78
2023-05-21T13:45:21.314Z,32.66
2023-05-21T13:47:49.955Z,32.61
2023-05-21T13:50:18.285Z,32.31
2023-05-21T13:52:47.172Z,31.94
2023-05-21T13:55:16.080Z,31.79
2023-05-21T13:57:46.163Z,31.75
2023-05-21T14:00:16.112Z,31.76
2023-05-21T14:02:44.842Z,31.71
2023-05-21T14:05:13.876Z,31.72
2023-05-21T14:07:42.771Z,31.89
2023-05-21T14:10:11.693Z,32.16
2023-05-21T14:12:40.690Z,32.32
2023-05-21T14:15:11.956Z,32.35
2023-05-21T14:17:42.433Z,32.39
2023-05-21T14:20:11.407Z,32.47
2023-05-21T14:22:39.787Z,32.48
2023-05-21T14:25:08.543Z,32.78
2023-05-21T14:27:38.419Z,33.13
2023-05-21T14:30:07.818Z,33.36
2023-05-21T14:32:37.292Z,33.55
2023-05-21T14:35:06.558Z,33.64
2023-05-21T14:37:34.627Z,33.49
2023-05-21T14:40:02.750Z,33.40
2023-05-21T14:42:31.399Z,33.30
2023-05-21T14:45:10.868Z,33.05
2023-05-21T14:47:48.813Z,32.84
2023-05-21T14:50:18.578Z,32.92
2023-05-21T14:52:46.936Z,33.01
2023-05-21T14:55:16.894Z,32.94
2023-05-21T14:57:45.254Z,32.84
2023-05-21T15:00:14.146Z,32.64
2023-05-21T15:02:42.683Z,32.45
2023-05-21T15:05:12.298Z,32.27
2023-05-21T15:07:40.334Z,32.16
2023-05-21T15:10:09.965Z,32.09
2023-05-21T15:12:38.092Z,32.01
2023-05-21T15:15:07.288Z,31.74
2023-05-21T15:17:35.988Z,31.88
2023-05-21T15:20:04.610Z,32.10
2023-05-21T15:22:34.604Z,32.42
2023-05-21T15:25:03.606Z,32.69
2023-05-21T15:27:31.663Z,32.81
2023-05-21T15:30:00.152Z,32.93
2023-05-21T15:32:28.621Z,33.01
2023-05-21T15:34:56.723Z,33.12
2023-05-21T15:37:24.797Z,33.20
2023-05-21T15:39:54.333Z,33.26
2023-05-21T15:42:22.603Z,33.26
2023-05-21T15:44:50.650Z,33.23
2023-05-21T15:47:18.718Z,33.26
2023-05-21T15:49:46.863Z,33.63
2023-05-21T15:52:14.953Z,33.56
2023-05-21T15:54:42.957Z,33.48
2023-05-21T15:57:12.394Z,33.43
2023-05-21T15:59:40.491Z,33.17
2023-05-21T16:02:09.235Z,33.00
2023-05-21T16:04:37.756Z,32.93
2023-05-21T16:07:06.272Z,32.89
2023-05-21T16:09:35.445Z,32.77
2023-05-21T16:12:03.471Z,32.71
2023-05-21T16:14:32.894Z,32.60
2023-05-21T16:17:01.048Z,32.43
2023-05-21T16:19:29.202Z,32.38
2023-05-21T16:21:57.330Z,32.37
2023-05-21T16:24:25.366Z,32.45
2023-05-21T16:26:53.432Z,32.46
2023-05-21T16:29:22.065Z,32.41
2023-05-21T16:31:51.778Z,32.32
2023-05-21T16:34:19.848Z,32.18
2023-05-21T16:36:47.937Z,32.18
2023-05-21T16:39:16.031Z,32.19
2023-05-21T16:41:44.842Z,32.13
2023-05-21T16:44:13.058Z,32.14
2023-05-21T16:46:41.161Z,32.12
2023-05-21T16:49:10.637Z,32.00
2023-05-21T16:51:38.759Z,31.92
2023-05-21T16:54:06.957Z,31.88
2023-05-21T16:56:35.377Z,31.78
2023-05-21T16:59:03.455Z,31.66
2023-05-21T17:01:31.701Z,31.54
2023-05-21T17:03:59.934Z,31.38
2023-05-21T17:06:29.468Z,31.30
2023-05-21T17:08:57.485Z,31.23
2023-05-21T17:11:25.527Z,31.18
2023-05-21T17:13:53.607Z,31.08
2023-05-21T17:16:21.683Z,31.05
2023-05-21T17:18:49.795Z,30.94
2023-05-21T17:21:18.540Z,30.90
2023-05-21T17:23:47.937Z,30.87
2023-05-21T17:26:16.181Z,30.85
2023-05-21T17:28:44.262Z,30.83
2023-05-21T17:31:12.370Z,30.84
2023-05-21T17:33:40.785Z,30.81
2023-05-21T17:36:08.950Z,30.80
2023-05-21T17:38:36.979Z,30.80
2023-05-21T17:41:06.668Z,30.80
2023-05-21T17:43:34.709Z,30.82
2023-05-21T17:46:02.720Z,30.78
2023-05-21T17:48:30.903Z,30.77
2023-05-21T17:50:59.061Z,30.75
2023-05-21T17:53:27.116Z,30.66
2023-05-21T17:55:55.395Z,30.61
2023-05-21T17:58:53.444Z,30.48
2023-05-21T18:01:21.637Z,30.42
2023-05-21T18:03:49.776Z,30.34
2023-05-21T18:06:17.932Z,30.24
2023-05-21T18:08:46.056Z,30.22
2023-05-21T18:11:14.125Z,30.16
2023-05-21T18:13:42.349Z,30.09
2023-05-21T18:16:11.934Z,30.05
2023-05-21T18:18:40.030Z,30.00
2023-05-21T18:21:08.139Z,29.92
2023-05-21T18:23:36.199Z,29.87
2023-05-21T18:26:04.496Z,29.82
2023-05-21T18:28:33.399Z,29.78
2023-05-21T18:31:03.759Z,29.73
2023-05-21T18:33:33.204Z,29.68
2023-05-21T18:36:01.330Z,29.58
2023-05-21T18:38:29.441Z,29.51
2023-05-21T18:40:57.491Z,29.45
2023-05-21T18:43:25.597Z,29.38
2023-05-21T18:45:53.699Z,29.31
2023-05-21T18:48:21.736Z,29.27
2023-05-21T18:50:51.204Z,29.23
2023-05-21T18:53:19.362Z,29.19
2023-05-21T18:55:47.448Z,29.16
2023-05-21T18:58:15.613Z,29.08
2023-05-21T19:00:43.718Z,29.03
2023-05-21T19:03:12.650Z,28.98
2023-05-21T19:05:40.857Z,28.92
2023-05-21T19:08:10.436Z,28.82
2023-05-21T19:10:39.290Z,28.73
2023-05-21T19:13:08.238Z,28.67
2023-05-21T19:15:36.450Z,28.62
2023-05-21T19:18:04.667Z,28.54
2023-05-21T19:20:32.808Z,28.43
2023-05-21T19:23:01.371Z,28.40
2023-05-21T19:25:31.536Z,28.32
2023-05-21T19:28:00.768Z,28.24
2023-05-21T19:30:28.850Z,28.17
2023-05-21T19:32:57.012Z,28.13
2023-05-21T19:35:25.134Z,28.04
2023-05-21T19:37:54.604Z,28.01
2023-05-21T19:40:23.215Z,27.91
2023-05-21T19:42:52.667Z,27.86
2023-05-21T19:45:21.526Z,27.76
2023-05-21T19:47:49.788Z,27.73
2023-05-21T19:50:17.973Z,27.67
2023-05-21T19:52:46.025Z,27.60
2023-05-21T19:55:14.491Z,27.57
2023-05-21T19:57:42.605Z,27.53
2023-05-21T20:00:14.542Z,27.46
2023-05-21T20:02:42.632Z,27.41
2023-05-21T20:05:11.200Z,27.37
2023-05-21T20:07:39.255Z,27.34
2023-05-21T20:10:08.748Z,27.28
2023-05-21T20:12:36.862Z,27.25
2023-05-21T20:15:06.718Z,27.23
2023-05-21T20:17:39.763Z,27.21
2023-05-21T20:20:10.372Z,27.19
2023-05-21T20:22:38.539Z,27.21
2023-05-21T20:25:08.798Z,27.16
2023-05-21T20:27:38.659Z,27.12
2023-05-21T20:30:32.789Z,27.08
2023-05-21T20:33:03.214Z,27.05
2023-05-21T20:35:31.366Z,27.02
2023-05-21T20:38:02.091Z,27.02
2023-05-21T20:40:30.174Z,27.01
2023-05-21T20:42:58.522Z,26.97
2023-05-21T20:45:29.658Z,26.95
2023-05-21T20:47:57.949Z,26.90
2023-05-21T20:50:28.791Z,26.89
2023-05-21T20:52:58.044Z,26.89
2023-05-21T20:55:26.445Z,26.90
2023-05-21T20:57:54.622Z,26.86
2023-05-21T21:00:22.899Z,26.80
2023-05-21T21:02:51.011Z,26.83
2023-05-21T21:05:20.153Z,26.82
2023-05-21T21:07:49.564Z,26.82
2023-05-21T21:10:17.867Z,26.81
2023-05-21T21:12:45.930Z,26.81
2023-05-21T21:15:14.246Z,26.80
2023-05-21T21:17:42.375Z,26.78
2023-05-21T21:20:12.802Z,26.78
2023-05-21T21:22:41.251Z,26.77
2023-05-21T21:25:11.643Z,26.76
2023-05-21T21:27:39.779Z,26.75
2023-05-21T21:30:09.186Z,26.72
2023-05-21T21:32:37.396Z,26.69
2023-05-21T21:35:05.980Z,26.68
2023-05-21T21:37:34.072Z,26.62
2023-05-21T21:40:02.246Z,26.56
2023-05-21T21:42:31.734Z,26.55
2023-05-21T21:44:59.797Z,26.54
2023-05-21T21:47:28.006Z,26.54
2023-05-21T21:49:56.079Z,26.48
2023-05-21T21:52:27.491Z,26.45
2023-05-21T21:54:56.340Z,26.40
2023-05-21T21:57:27.550Z,26.36
2023-05-21T21:59:59.578Z,26.31
2023-05-21T22:02:51.963Z,26.27
2023-05-21T22:05:26.526Z,26.25
2023-05-21T22:07:55.009Z,26.24
2023-05-21T22:10:26.891Z,26.19
2023-05-21T22:12:55.637Z,26.16
2023-05-21T22:15:28.866Z,26.13
2023-05-21T22:21:14.325Z,25.99
2023-05-21T22:23:42.703Z,25.98
2023-05-21T22:26:11.136Z,25.97
2023-05-21T22:28:39.170Z,25.95
2023-05-21T22:31:09.098Z,25.94
2023-05-21T22:33:37.792Z,25.91
2023-05-21T22:36:06.669Z,25.90
2023-05-21T22:38:34.831Z,25.87
2023-05-21T22:41:03.638Z,25.80
2023-05-21T22:43:31.888Z,25.75
2023-05-21T22:46:00.057Z,25.71
2023-05-21T22:48:30.691Z,25.69
2023-05-21T22:50:59.171Z,25.67
2023-05-21T22:53:27.298Z,25.64
2023-05-21T22:55:55.608Z,25.62
2023-05-21T22:58:23.717Z,25.57
2023-05-21T23:00:51.756Z,25.53
2023-05-21T23:03:19.904Z,25.48
2023-05-21T23:05:49.577Z,25.42
2023-05-21T23:08:17.778Z,25.42
2023-05-21T23:10:45.945Z,25.42
2023-05-21T23:13:14.013Z,25.36
2023-05-21T23:15:43.745Z,25.32
2023-05-21T23:18:12.539Z,25.25
2023-05-21T23:20:41.895Z,25.21
2023-05-21T23:23:12.125Z,25.19
2023-05-21T23:25:40.205Z,25.12
2023-05-21T23:28:08.355Z,25.09
2023-05-21T23:30:36.525Z,25.06
2023-05-21T23:33:05.002Z,25.02
2023-05-21T23:35:33.118Z,24.98
2023-05-21T23:38:01.319Z,24.91
2023-05-21T23:40:30.763Z,24.87
2023-05-21T23:42:58.974Z,24.84
2023-05-21T23:45:27.095Z,24.80
2023-05-21T23:47:55.192Z,24.77
2023-05-21T23:50:23.236Z,24.73
2023-05-21T23:52:51.464Z,24.72
2023-05-21T23:55:19.532Z,24.71
2023-05-21T23:57:49.077Z,24.69
